createdAt,value
2019-03-06T00:00:49.658Z,97496.21
2019-03-06T00:03:25.813Z,97494.72
2019-03-06T00:06:00.250Z,97496.73
2019-03-06T00:08:34.723Z,97493.56
2019-03-06T00:11:09.252Z,97491.80
2019-03-06T00:13:43.640Z,97493.13
2019-03-06T00:16:18.141Z,97488.46
2019-03-06T00:18:52.659Z,97502.73
2019-03-06T00:21:27.092Z,97502.73
2019-03-06T00:24:01.371Z,97493.22
2019-03-06T00:26:35.874Z,97493.22
2019-03-06T00:29:09.857Z,97501.78
2019-03-06T00:31:44.206Z,97498.48
2019-03-06T00:34:18.682Z,97504.70
2019-03-06T00:36:52.953Z,97504.70
2019-03-06T00:39:30.399Z,97508.86
2019-03-06T00:42:04.904Z,97509.97
2019-03-06T00:44:39.283Z,97506.80
2019-03-06T00:47:13.761Z,97506.80
2019-03-06T00:49:48.285Z,97508.30
2019-03-06T00:52:22.688Z,97507.44
2019-03-06T00:54:57.124Z,97515.84
2019-03-06T00:57:31.695Z,97505.86
2019-03-06T01:00:06.771Z,97505.86
2019-03-06T01:02:40.875Z,97505.69
2019-03-06T01:05:14.128Z,97510.06
2019-03-06T01:07:48.820Z,97511.94
2019-03-06T01:10:22.115Z,97511.94
2019-03-06T01:12:56.290Z,97500.63
2019-03-06T01:15:30.726Z,97502.61
2019-03-06T01:18:05.095Z,97502.34
2019-03-06T01:20:39.338Z,97488.08
2019-03-06T01:23:13.790Z,97488.08
2019-03-06T01:25:48.739Z,97497.24
2019-03-06T01:28:23.285Z,97497.24
2019-03-06T01:30:57.727Z,97502.55
2019-03-06T01:33:50.731Z,97500.87
2019-03-06T01:36:49.891Z,97497.14
2019-03-06T01:39:47.118Z,97499.20
2019-03-06T01:42:58.674Z,97499.20
2019-03-06T01:45:33.287Z,97495.25
2019-03-06T01:48:07.812Z,97499.80
2019-03-06T01:50:42.491Z,97500.31
2019-03-06T01:53:17.133Z,97500.31
2019-03-06T01:55:51.684Z,97505.17
2019-03-06T01:58:26.094Z,97505.17
2019-03-06T02:01:00.754Z,97503.98
2019-03-06T02:03:35.147Z,97503.98
2019-03-06T02:06:09.955Z,97497.44
2019-03-06T02:08:44.684Z,97505.89
2019-03-06T02:11:18.951Z,97505.89
2019-03-06T02:13:53.341Z,97504.20
2019-03-06T02:16:28.136Z,97504.20
2019-03-06T02:19:03.649Z,97503.16
2019-03-06T02:21:37.951Z,97503.16
2019-03-06T02:24:12.282Z,97500.20
2019-03-06T02:26:46.729Z,97499.98
2019-03-06T02:29:21.129Z,97499.98
2019-03-06T02:31:55.701Z,97504.73
2019-03-06T02:34:30.111Z,97504.73
2019-03-06T02:37:04.682Z,97510.47
2019-03-06T02:39:39.088Z,97510.47
2019-03-06T02:42:13.364Z,97512.95
2019-03-06T02:44:47.971Z,97512.95
2019-03-06T02:47:22.347Z,97510.84
2019-03-06T02:49:56.738Z,97510.84
2019-03-06T02:52:31.293Z,97507.48
2019-03-06T02:55:05.888Z,97507.54
2019-03-06T02:57:40.408Z,97511.82
2019-03-06T03:00:53.962Z,97510.88
2019-03-06T03:03:46.267Z,97512.26
2019-03-06T03:06:26.500Z,97512.26
2019-03-06T03:09:00.964Z,97522.44
2019-03-06T03:11:37.122Z,97520.49
2019-03-06T03:14:11.649Z,97523.11
2019-03-06T03:16:46.115Z,97523.11
2019-03-06T03:19:20.644Z,97519.72
2019-03-06T03:21:54.965Z,97519.72
2019-03-06T03:24:29.335Z,97521.62
2019-03-06T03:27:03.725Z,97521.62
2019-03-06T03:29:38.110Z,97515.54
2019-03-06T03:32:12.640Z,97505.87
2019-03-06T03:34:46.957Z,97505.87
2019-03-06T03:37:21.306Z,97503.35
2019-03-06T03:39:55.778Z,97501.21
2019-03-06T03:42:28.685Z,97507.34
2019-03-06T03:45:02.981Z,97509.09
2019-03-06T03:47:37.467Z,97514.45
2019-03-06T03:50:12.352Z,97514.45
2019-03-06T03:52:46.924Z,97519.74
2019-03-06T03:55:21.341Z,97520.14
2019-03-06T03:57:55.736Z,97520.14
2019-03-06T04:00:30.290Z,97519.84
2019-03-06T04:03:04.820Z,97517.46
2019-03-06T04:05:39.145Z,97523.02
2019-03-06T04:08:13.680Z,97512.73
2019-03-06T04:10:47.956Z,97512.73
2019-03-06T04:13:21.038Z,97514.44
2019-03-06T04:15:53.789Z,97516.28
2019-03-06T04:18:27.945Z,97515.48
2019-03-06T04:21:00.703Z,97510.73
2019-03-06T04:23:34.889Z,97505.62
2019-03-06T04:26:07.674Z,97497.02
2019-03-06T04:28:41.880Z,97497.02
2019-03-06T04:31:14.842Z,97487.26
2019-03-06T04:33:48.957Z,97483.86
2019-03-06T04:36:23.662Z,97476.23
2019-03-06T04:38:58.129Z,97476.23
2019-03-06T04:41:32.745Z,97469.55
2019-03-06T04:44:07.133Z,97468.42
2019-03-06T04:46:41.700Z,97464.97
2019-03-06T04:49:16.119Z,97461.72
2019-03-06T04:51:50.668Z,97459.62
2019-03-06T04:54:24.909Z,97459.62
2019-03-06T04:57:00.285Z,97469.38
2019-03-06T04:59:34.889Z,97465.10
2019-03-06T05:02:07.865Z,97473.60
2019-03-06T05:04:42.113Z,97472.77
2019-03-06T05:07:16.290Z,97479.61
2019-03-06T05:09:50.728Z,97479.61
2019-03-06T05:12:25.124Z,97477.19
2019-03-06T05:14:59.671Z,97479.52
2019-03-06T05:17:58.452Z,97482.76
2019-03-06T05:20:32.946Z,97486.99
2019-03-06T05:23:05.860Z,97492.94
2019-03-06T05:25:40.128Z,97493.80
2019-03-06T05:28:14.621Z,97490.22
2019-03-06T05:30:49.112Z,97490.22
2019-03-06T05:33:23.677Z,97489.67
2019-03-06T05:36:42.702Z,97489.67
2019-03-06T05:39:16.948Z,97494.44
2019-03-06T05:41:50.949Z,97488.13
2019-03-06T05:44:25.316Z,97489.02
2019-03-06T05:46:59.936Z,97489.02
2019-03-06T05:49:33.019Z,97477.41
2019-03-06T05:52:07.073Z,97472.25
2019-03-06T05:54:41.371Z,97466.56
2019-03-06T05:57:17.294Z,97466.56
2019-03-06T05:59:52.133Z,97459.43
2019-03-06T06:02:27.976Z,97466.34
2019-03-06T06:05:03.143Z,97447.56
2019-03-06T06:07:37.744Z,97438.98
2019-03-06T06:10:47.760Z,97445.42
2019-03-06T06:13:22.338Z,97445.42
2019-03-06T06:17:50.690Z,97443.50
2019-03-06T06:20:25.277Z,97440.55
2019-03-06T06:23:20.904Z,97441.25
2019-03-06T06:25:54.271Z,97441.25
2019-03-06T06:28:28.682Z,97448.61
2019-03-06T06:31:03.284Z,97448.61
2019-03-06T06:33:37.909Z,97441.20
2019-03-06T06:36:11.282Z,97440.94
2019-03-06T06:38:45.698Z,97428.17
2019-03-06T06:41:20.320Z,97428.17
2019-03-06T06:43:54.892Z,97433.31
2019-03-06T06:46:29.653Z,97433.31
2019-03-06T06:49:03.645Z,97437.56
2019-03-06T06:52:37.103Z,97431.29
2019-03-06T06:56:04.276Z,97430.81
2019-03-06T06:59:21.065Z,97427.54
2019-03-06T07:03:02.557Z,97425.01
2019-03-06T07:05:51.075Z,97425.01
2019-03-06T07:08:43.275Z,97405.95
2019-03-06T07:11:32.273Z,97405.95
2019-03-06T07:14:34.932Z,97363.73
2019-03-06T07:17:22.932Z,97394.36
2019-03-06T07:20:12.236Z,97397.59
2019-03-06T07:22:54.662Z,97396.52
2019-03-06T07:25:47.739Z,97397.27
2019-03-06T07:28:26.272Z,97389.33
2019-03-06T07:31:20.470Z,97401.75
2019-03-06T07:34:16.863Z,97401.75
2019-03-06T07:36:58.653Z,97407.50
2019-03-06T07:39:50.898Z,97406.36
2019-03-06T07:42:46.757Z,97407.59
2019-03-06T07:46:00.096Z,97406.91
2019-03-06T07:49:00.274Z,97407.73
2019-03-06T07:51:50.077Z,97398.34
2019-03-06T07:54:43.273Z,97387.69
2019-03-06T07:57:35.093Z,97387.69
2019-03-06T08:00:22.745Z,97389.62
2019-03-06T08:03:13.045Z,97383.63
2019-03-06T08:05:47.393Z,97382.09
2019-03-06T08:08:21.940Z,97372.09
2019-03-06T08:10:57.584Z,97370.91
2019-03-06T08:13:40.297Z,97363.95
2019-03-06T08:16:28.947Z,97364.72
2019-03-06T08:19:34.620Z,97352.78
2019-03-06T08:22:16.716Z,97352.96
2019-03-06T08:25:28.275Z,97352.52
2019-03-06T08:28:03.249Z,97345.59
2019-03-06T08:30:40.276Z,97342.95
2019-03-06T08:33:18.290Z,97335.05
2019-03-06T08:35:51.321Z,97337.36
2019-03-06T08:38:25.946Z,97333.11
2019-03-06T08:41:04.508Z,97322.67
2019-03-06T08:43:36.946Z,97334.70
2019-03-06T08:46:30.277Z,97319.71
2019-03-06T08:49:31.272Z,97319.71
2019-03-06T08:52:17.274Z,97313.50
2019-03-06T08:55:28.698Z,97317.66
2019-03-06T08:58:18.675Z,97319.97
2019-03-06T09:01:24.266Z,97319.20
2019-03-06T09:04:08.273Z,97312.86
2019-03-06T09:06:58.739Z,97312.86
2019-03-06T09:09:40.110Z,97316.84
2019-03-06T09:12:39.275Z,97304.88
2019-03-06T09:15:45.444Z,97304.88
2019-03-06T09:18:29.599Z,97283.72
2019-03-06T09:21:19.407Z,97285.68
2019-03-06T09:24:04.634Z,97276.86
2019-03-06T09:27:10.403Z,97276.52
2019-03-06T09:30:22.264Z,97291.05
2019-03-06T09:33:04.385Z,97279.05
2019-03-06T09:35:57.508Z,97274.91
2019-03-06T09:38:50.507Z,97269.52
2019-03-06T09:41:46.941Z,97269.52
2019-03-06T09:44:38.932Z,97273.81
2019-03-06T09:47:22.569Z,97273.81
2019-03-06T09:50:12.312Z,97277.86
2019-03-06T09:53:08.591Z,97277.86
2019-03-06T09:56:17.459Z,97274.08
2019-03-06T09:59:19.733Z,97269.71
2019-03-06T10:02:12.781Z,97269.71
2019-03-06T10:04:57.275Z,97261.07
2019-03-06T10:07:49.491Z,97261.07
2019-03-06T10:10:47.558Z,97259.14
2019-03-06T10:13:42.181Z,97252.77
2019-03-06T10:16:32.945Z,97241.36
2019-03-06T10:19:16.759Z,97241.36
2019-03-06T10:21:50.125Z,97236.59
2019-03-06T10:24:24.659Z,97225.14
2019-03-06T10:26:58.062Z,97225.14
2019-03-06T10:29:33.234Z,97214.27
2019-03-06T10:32:07.941Z,97228.16
2019-03-06T10:34:42.628Z,97203.69
2019-03-06T10:37:18.123Z,97203.69
2019-03-06T10:39:53.176Z,97208.05
2019-03-06T10:42:28.248Z,97214.95
2019-03-06T10:45:02.939Z,97216.31
2019-03-06T10:47:38.936Z,97226.00
2019-03-06T10:50:26.020Z,97214.71
2019-03-06T10:52:53.333Z,97214.71
2019-03-06T10:55:27.945Z,97208.91
2019-03-06T10:58:04.278Z,97221.75
2019-03-06T11:00:46.539Z,97214.27
2019-03-06T11:03:23.768Z,97209.08
2019-03-06T11:05:57.042Z,97209.08
2019-03-06T11:08:31.668Z,97209.81
2019-03-06T11:11:05.431Z,97193.53
2019-03-06T11:13:41.276Z,97192.90
2019-03-06T11:16:17.962Z,97201.33
2019-03-06T11:18:52.894Z,97206.06
2019-03-06T11:21:27.670Z,97200.22
2019-03-06T11:24:02.309Z,97204.02
2019-03-06T11:26:37.306Z,97204.02
2019-03-06T11:29:13.281Z,97188.84
2019-03-06T11:31:49.671Z,97188.84
2019-03-06T11:34:24.028Z,97197.17
2019-03-06T11:36:58.774Z,97184.45
2019-03-06T11:39:32.351Z,97176.97
2019-03-06T11:42:07.324Z,97189.95
2019-03-06T11:44:41.949Z,97179.16
2019-03-06T11:47:16.678Z,97170.98
2019-03-06T11:49:50.279Z,97171.34
2019-03-06T11:52:24.710Z,97152.88
2019-03-06T11:55:05.957Z,97152.88
2019-03-06T11:57:33.424Z,97162.35
2019-03-06T12:00:19.367Z,97162.35
2019-03-06T12:02:55.251Z,97154.17
2019-03-06T12:05:31.419Z,97149.09
2019-03-06T12:08:08.740Z,97142.64
2019-03-06T12:10:43.940Z,97131.20
2019-03-06T12:13:19.646Z,97140.31
2019-03-06T12:15:54.717Z,97140.31
2019-03-06T12:18:29.747Z,97120.47
2019-03-06T12:21:03.108Z,97120.47
2019-03-06T12:23:37.659Z,97110.84
2019-03-06T12:26:12.672Z,97110.84
2019-03-06T12:28:46.284Z,97105.68
2019-03-06T12:31:21.359Z,97091.97
2019-03-06T12:33:56.103Z,97087.13
2019-03-06T12:36:30.731Z,97069.69
2019-03-06T12:39:07.616Z,97069.69
2019-03-06T12:41:45.679Z,97076.86
2019-03-06T12:44:20.507Z,97068.26
2019-03-06T12:46:57.683Z,97057.47
2019-03-06T12:49:32.278Z,97053.17
2019-03-06T12:52:06.947Z,97046.05
2019-03-06T12:54:41.348Z,97050.80
2019-03-06T12:57:16.280Z,97035.92
2019-03-06T12:59:51.287Z,97035.92
2019-03-06T13:02:26.269Z,97024.31
2019-03-06T13:05:00.953Z,97017.14
2019-03-06T13:07:35.877Z,97013.50
2019-03-06T13:10:12.327Z,97008.80
2019-03-06T13:12:48.273Z,97010.92
2019-03-06T13:15:25.385Z,96991.83
2019-03-06T13:17:59.070Z,96985.45
2019-03-06T13:20:33.503Z,96976.40
2019-03-06T13:23:09.254Z,96967.93
2019-03-06T13:25:44.941Z,96960.48
2019-03-06T13:28:21.829Z,96934.41
2019-03-06T13:30:56.792Z,96931.59
2019-03-06T13:33:50.129Z,96931.59
2019-03-06T13:36:25.280Z,96935.06
2019-03-06T13:39:06.314Z,96933.05
2019-03-06T13:41:37.735Z,96930.00
2019-03-06T13:44:10.860Z,96939.08
2019-03-06T13:46:45.392Z,96927.97
2019-03-06T13:49:22.314Z,96929.69
2019-03-06T13:51:57.268Z,96924.43
2019-03-06T13:54:31.935Z,96919.44
2019-03-06T13:57:07.304Z,96916.36
2019-03-06T13:59:42.299Z,96924.25
2019-03-06T14:02:17.416Z,96917.25
2019-03-06T14:04:52.280Z,96919.56
2019-03-06T14:07:27.334Z,96920.91
2019-03-06T14:10:02.090Z,96918.43
2019-03-06T14:12:36.864Z,96912.36
2019-03-06T14:15:11.811Z,96916.53
2019-03-06T14:17:45.308Z,96913.13
2019-03-06T14:20:21.609Z,96914.50
2019-03-06T14:22:55.272Z,96910.75
2019-03-06T14:25:31.625Z,96904.75
2019-03-06T14:28:06.283Z,96898.63
2019-03-06T14:30:40.938Z,96884.27
2019-03-06T14:33:16.891Z,96882.32
2019-03-06T14:35:53.693Z,96882.32
2019-03-06T14:38:27.095Z,96870.63
2019-03-06T14:41:01.642Z,96867.61
2019-03-06T14:43:35.083Z,96858.50
2019-03-06T14:46:16.224Z,96845.27
2019-03-06T14:48:45.274Z,96857.86
2019-03-06T14:51:19.943Z,96840.07
2019-03-06T14:53:54.723Z,96833.95
2019-03-06T14:56:27.868Z,96823.75
2019-03-06T14:59:00.869Z,96823.75
2019-03-06T15:01:36.642Z,96813.75
2019-03-06T15:04:11.279Z,96805.59
2019-03-06T15:06:45.892Z,96810.29
2019-03-06T15:09:29.414Z,96816.44
2019-03-06T15:12:03.949Z,96807.22
2019-03-06T15:14:38.757Z,96795.28
2019-03-06T15:17:13.282Z,96794.66
2019-03-06T15:19:47.733Z,96785.80
2019-03-06T15:22:21.048Z,96785.80
2019-03-06T15:24:55.673Z,96778.66
2019-03-06T15:29:46.699Z,96771.66
2019-03-06T15:32:20.366Z,96764.44
2019-03-06T15:34:55.319Z,96753.52
2019-03-06T15:37:30.277Z,96753.52
2019-03-06T15:40:07.714Z,96747.00
2019-03-06T15:42:41.280Z,96747.00
2019-03-06T15:45:18.281Z,96737.93
2019-03-06T15:47:53.275Z,96746.43
2019-03-06T15:50:28.526Z,96746.43
2019-03-06T15:53:05.291Z,96744.56
2019-03-06T15:55:40.106Z,96721.16
2019-03-06T15:58:14.751Z,96715.01
2019-03-06T16:00:48.047Z,96707.58
2019-03-06T16:03:22.670Z,96707.58
2019-03-06T16:05:57.291Z,96711.88
2019-03-06T16:08:32.274Z,96697.40
2019-03-06T16:11:08.615Z,96689.09
2019-03-06T16:13:43.269Z,96684.58
2019-03-06T16:16:17.753Z,96679.28
2019-03-06T16:19:46.683Z,96670.03
2019-03-06T16:22:23.395Z,96683.94
2019-03-06T16:24:58.202Z,96662.50
2019-03-06T16:27:33.279Z,96671.43
2019-03-06T16:30:10.751Z,96667.60
2019-03-06T16:32:44.129Z,96662.45
2019-03-06T16:36:28.748Z,96657.73
2019-03-06T16:39:03.433Z,96651.53
2019-03-06T16:41:40.076Z,96651.53
2019-03-06T16:44:15.248Z,96666.33
2019-03-06T16:46:50.289Z,96653.08
2019-03-06T16:49:25.279Z,96656.42
2019-03-06T16:52:00.623Z,96649.42
2019-03-06T16:54:35.389Z,96668.78
2019-03-06T16:57:10.311Z,96668.78
2019-03-06T17:02:18.280Z,96658.91
2019-03-06T17:04:53.950Z,96669.93
2019-03-06T17:07:29.682Z,96669.93
2019-03-06T17:10:06.318Z,96642.22
2019-03-06T17:12:41.338Z,96642.22
2019-03-06T17:15:17.854Z,96644.87
2019-03-06T17:17:52.688Z,96633.14
2019-03-06T17:23:13.868Z,96629.24
2019-03-06T17:25:49.664Z,96629.24
2019-03-06T17:28:26.547Z,96629.65
2019-03-06T17:31:01.261Z,96635.95
2019-03-06T17:35:30.688Z,96625.56
2019-03-06T17:38:05.841Z,96625.71
2019-03-06T17:40:40.684Z,96625.58
2019-03-06T17:43:14.349Z,96602.43
2019-03-06T17:45:47.863Z,96598.28
2019-03-06T17:48:22.284Z,96603.31
2019-03-06T17:50:56.791Z,96607.09
2019-03-06T17:53:29.684Z,96616.67
2019-03-06T17:56:04.108Z,96613.27
2019-03-06T17:58:38.881Z,96607.48
2019-03-06T18:01:17.647Z,96602.46
2019-03-06T18:04:10.702Z,96602.70
2019-03-06T18:06:45.392Z,96610.51
2019-03-06T18:09:19.935Z,96602.31
2019-03-06T18:11:55.274Z,96610.27
2019-03-06T18:14:30.705Z,96596.17
2019-03-06T18:17:03.679Z,96599.72
2019-03-06T18:19:38.128Z,96593.29
2019-03-06T18:22:12.695Z,96593.29
2019-03-06T18:24:49.482Z,96593.02
2019-03-06T18:27:26.529Z,96593.02
2019-03-06T18:30:00.202Z,96576.25
2019-03-06T18:32:34.866Z,96575.61
2019-03-06T18:35:09.933Z,96580.54
2019-03-06T18:37:45.063Z,96594.67
2019-03-06T18:40:20.409Z,96580.95
2019-03-06T18:42:55.283Z,96580.95
2019-03-06T18:45:29.933Z,96559.91
2019-03-06T18:48:04.287Z,96547.82
2019-03-06T18:50:38.783Z,96547.82
2019-03-06T18:53:12.043Z,96554.88
2019-03-06T18:55:46.730Z,96546.82
2019-03-06T18:58:21.289Z,96539.50
2019-03-06T19:00:56.795Z,96533.72
2019-03-06T19:03:32.781Z,96535.96
2019-03-06T19:06:06.277Z,96528.03
2019-03-06T19:08:40.740Z,96522.36
2019-03-06T19:11:17.177Z,96525.13
2019-03-06T19:13:50.426Z,96535.20
2019-03-06T19:16:25.269Z,96551.95
2019-03-06T19:18:59.751Z,96551.95
2019-03-06T19:21:33.034Z,96537.60
2019-03-06T19:24:08.383Z,96529.03
2019-03-06T19:26:43.114Z,96529.03
2019-03-06T19:29:17.690Z,96516.69
2019-03-06T19:31:52.213Z,96521.45
2019-03-06T19:34:27.105Z,96516.29
2019-03-06T19:37:01.770Z,96515.91
2019-03-06T19:39:36.391Z,96505.55
2019-03-06T19:42:11.323Z,96504.55
2019-03-06T19:44:45.942Z,96496.10
2019-03-06T19:47:20.698Z,96483.52
2019-03-06T19:52:17.065Z,96477.78
2019-03-06T19:54:51.576Z,96462.95
2019-03-06T19:57:32.382Z,96480.95
2019-03-06T20:00:07.369Z,96462.33
2019-03-06T20:02:43.811Z,96463.46
2019-03-06T20:05:19.152Z,96457.77
2019-03-06T20:07:53.941Z,96457.77
2019-03-06T20:10:30.909Z,96452.59
2019-03-06T20:13:03.992Z,96447.67
2019-03-06T20:15:38.726Z,96452.41
2019-03-06T20:18:13.653Z,96454.95
2019-03-06T20:20:48.347Z,96439.08
2019-03-06T20:23:22.972Z,96447.93
2019-03-06T20:25:58.652Z,96428.30
2019-03-06T20:28:33.748Z,96428.30
2019-03-06T20:31:07.939Z,96432.58
2019-03-06T20:33:45.502Z,96421.81
2019-03-06T20:36:20.305Z,96422.22
2019-03-06T20:38:55.130Z,96409.58
2019-03-06T20:41:30.144Z,96416.93
2019-03-06T20:44:05.116Z,96420.99
2019-03-06T20:46:40.283Z,96423.38
2019-03-06T20:49:14.992Z,96427.30
2019-03-06T20:51:49.764Z,96418.59
2019-03-06T20:54:23.016Z,96423.73
2019-03-06T20:56:57.442Z,96432.81
2019-03-06T20:59:31.938Z,96419.45
2019-03-06T21:02:06.273Z,96439.93
2019-03-06T21:04:40.989Z,96434.26
2019-03-06T21:07:15.666Z,96434.26
2019-03-06T21:09:50.306Z,96434.26
2019-03-06T21:12:24.949Z,96430.09
2019-03-06T21:14:59.728Z,96432.45
2019-03-06T21:17:34.861Z,96432.45
2019-03-06T21:20:10.622Z,96426.81
2019-03-06T21:22:45.161Z,96431.98
2019-03-06T21:25:21.106Z,96419.50
2019-03-06T21:27:55.958Z,96424.99
2019-03-06T21:30:38.479Z,96422.59
2019-03-06T21:33:13.134Z,96422.59
2019-03-06T21:35:47.944Z,96411.03
2019-03-06T21:38:28.970Z,96414.19
2019-03-06T21:41:03.308Z,96419.45
2019-03-06T21:43:38.270Z,96417.21
2019-03-06T21:46:12.700Z,96413.46
2019-03-06T21:48:45.763Z,96407.59
2019-03-06T21:51:20.138Z,96407.59
2019-03-06T21:53:54.932Z,96393.77
2019-03-06T21:56:29.684Z,96403.22
2019-03-06T21:59:03.000Z,96403.22
2019-03-06T22:01:37.298Z,96395.66
2019-03-06T22:04:12.286Z,96388.34
2019-03-06T22:06:47.136Z,96388.34
2019-03-06T22:09:21.861Z,96374.59
2019-03-06T22:11:56.331Z,96392.20
2019-03-06T22:14:30.898Z,96392.20
2019-03-06T22:17:04.011Z,96373.95
2019-03-06T22:19:38.718Z,96378.49
2019-03-06T22:22:13.289Z,96403.06
2019-03-06T22:24:47.887Z,96371.31
2019-03-06T22:27:21.042Z,96362.23
2019-03-06T22:29:55.689Z,96353.80
2019-03-06T22:32:28.878Z,96353.80
2019-03-06T22:35:03.152Z,96348.89
2019-03-06T22:37:37.664Z,96350.43
2019-03-06T22:40:13.673Z,96348.83
2019-03-06T22:42:48.114Z,96350.62
2019-03-06T22:45:22.653Z,96363.09
2019-03-06T22:47:55.709Z,96363.09
2019-03-06T22:50:29.949Z,96348.50
2019-03-06T22:53:04.321Z,96337.17
2019-03-06T22:55:38.955Z,96336.16
2019-03-06T22:58:13.343Z,96338.18
2019-03-06T23:03:46.713Z,96322.44
2019-03-06T23:06:19.711Z,96323.57
2019-03-06T23:08:54.073Z,96327.60
2019-03-06T23:11:28.878Z,96312.20
2019-03-06T23:14:03.351Z,96312.20
2019-03-06T23:16:37.945Z,96313.74
2019-03-06T23:19:12.790Z,96320.39
2019-03-06T23:21:45.657Z,96313.88
2019-03-06T23:24:19.961Z,96309.31
2019-03-06T23:26:54.326Z,96309.31
2019-03-06T23:29:28.957Z,96319.29
2019-03-06T23:33:08.712Z,96309.69
2019-03-06T23:35:41.867Z,96308.96
2019-03-06T23:38:14.874Z,96307.30
2019-03-06T23:40:47.798Z,96308.08
2019-03-06T23:43:22.293Z,96302.28
2019-03-06T23:45:56.833Z,96294.23
2019-03-06T23:48:30.110Z,96292.21
2019-03-06T23:51:08.718Z,96289.82
2019-03-06T23:53:53.006Z,96289.82
2019-03-06T23:56:26.043Z,96289.57
2019-03-06T23:58:58.867Z,96292.72
